Time;durP1;ratioP1;P1;durP2;ratioP2;P2;SDS_P1;SDS_P2;PMS_P1;PMS_P2;Temp;Humidity;BMP_temperature;BMP_pressure;BME280_temperature;BME280_humidity;BME280_pressure;Samples;Min_cycle;Max_cycle;Signal;HPM_P1;HPM_P2
2021/10/12 00:00:52;;;;;;;19.05;12.93;;;11.50;90.20;;;;;;1871517;75;21039;-47
2021/10/12 00:03:21;;;;;;;19.45;12.60;;;11.50;90.20;;;;;;1871374;77;21004;-47
2021/10/12 00:05:50;;;;;;;17.42;12.60;;;11.50;90.10;;;;;;1871336;77;21110;-48
2021/10/12 00:08:20;;;;;;;16.60;12.82;;;11.50;90.10;;;;;;1871318;75;21007;-47
2021/10/12 00:10:49;;;;;;;17.27;12.25;;;11.50;90.20;;;;;;1871371;77;21035;-46
2021/10/12 00:13:19;;;;;;;19.05;12.33;;;11.50;90.10;;;;;;1871420;77;21212;-45
2021/10/12 00:15:48;;;;;;;16.40;12.47;;;11.50;90.10;;;;;;1871466;75;21067;-46
2021/10/12 00:18:18;;;;;;;15.15;11.73;;;11.40;90.10;;;;;;1871439;77;21113;-47
2021/10/12 00:20:47;;;;;;;18.25;12.07;;;11.40;90.10;;;;;;1871310;77;21149;-46
2021/10/12 00:23:16;;;;;;;18.90;12.43;;;11.40;90.10;;;;;;1871345;75;21055;-47
2021/10/12 00:25:46;;;;;;;14.87;11.30;;;11.40;90.20;;;;;;1871309;75;21016;-47
2021/10/12 00:28:15;;;;;;;15.23;11.57;;;11.40;90.20;;;;;;1871379;76;21055;-47
2021/10/12 00:30:44;;;;;;;13.62;11.03;;;11.40;90.20;;;;;;1871413;77;21031;-46
2021/10/12 00:33:14;;;;;;;17.52;11.68;;;11.40;90.20;;;;;;1871363;77;21004;-46
2021/10/12 00:35:43;;;;;;;17.25;12.15;;;11.40;90.10;;;;;;1871428;77;21098;-47
2021/10/12 00:38:12;;;;;;;21.62;12.40;;;11.30;90.10;;;;;;1871401;76;21063;-46
2021/10/12 00:40:41;;;;;;;17.23;12.70;;;11.30;90.10;;;;;;1871341;77;21031;-46
2021/10/12 00:43:11;;;;;;;18.90;12.40;;;11.30;90.10;;;;;;1871455;77;21031;-47
2021/10/12 00:45:41;;;;;;;16.97;12.53;;;11.30;90.10;;;;;;1871349;77;21098;-46
2021/10/12 00:48:11;;;;;;;16.50;12.40;;;11.20;90.10;;;;;;1871324;76;21063;-46
2021/10/12 00:50:41;;;;;;;18.75;13.30;;;11.20;90.20;;;;;;1871342;77;21039;-46
2021/10/12 00:53:10;;;;;;;25.85;15.23;;;11.30;90.20;;;;;;1871428;77;21117;-47
2021/10/12 00:55:40;;;;;;;19.50;13.90;;;11.30;90.20;;;;;;1871378;77;21059;-47
2021/10/12 00:58:13;;;;;;;19.57;13.00;;;11.30;90.10;;;;;;1871316;76;21028;-47
2021/10/12 01:00:43;;;;;;;19.50;13.22;;;11.30;90.10;;;;;;1871458;77;21008;-47
2021/10/12 01:03:12;;;;;;;18.52;12.75;;;11.20;90.20;;;;;;1871504;77;21047;-47
2021/10/12 01:05:43;;;;;;;19.62;15.18;;;11.20;90.10;;;;;;1871401;77;21490;-46
2021/10/12 01:08:13;;;;;;;22.73;15.65;;;11.20;90.10;;;;;;1871330;77;21085;-46
2021/10/12 01:10:42;;;;;;;18.65;13.48;;;11.20;90.10;;;;;;1871481;77;21019;-46
2021/10/12 01:13:12;;;;;;;23.80;14.20;;;11.20;90.10;;;;;;1871357;77;21031;-46
2021/10/12 01:15:41;;;;;;;22.75;15.50;;;11.20;90.10;;;;;;1871557;77;21028;-46
2021/10/12 01:18:14;;;;;;;22.20;15.68;;;11.20;90.10;;;;;;1871361;77;21434;-46
2021/10/12 01:20:45;;;;;;;22.82;14.45;;;11.20;90.10;;;;;;1871493;77;21063;-46
2021/10/12 01:23:15;;;;;;;17.50;13.32;;;11.10;90.10;;;;;;1871471;77;21032;-46
2021/10/12 01:25:44;;;;;;;19.23;14.23;;;11.10;90.10;;;;;;1871416;76;21035;-46
2021/10/12 01:28:14;;;;;;;19.27;13.93;;;11.10;90.10;;;;;;1871268;77;21093;-46
2021/10/12 01:30:43;;;;;;;21.57;14.45;;;11.10;90.20;;;;;;1871446;77;21007;-49
2021/10/12 01:33:12;;;;;;;20.80;15.05;;;11.10;90.30;;;;;;1871340;77;21036;-46
2021/10/12 01:35:42;;;;;;;20.25;14.28;;;11.10;90.30;;;;;;1871466;77;21019;-47
2021/10/12 01:38:11;;;;;;;21.50;13.80;;;11.10;90.20;;;;;;1882053;75;21050;-47
2021/10/12 01:40:41;;;;;;;21.80;15.23;;;11.10;90.20;;;;;;1890102;76;21030;-46
2021/10/12 01:43:10;;;;;;;23.83;14.60;;;11.00;90.20;;;;;;1890028;76;21102;-46
2021/10/12 01:45:40;;;;;;;21.00;15.28;;;11.00;90.20;;;;;;1890098;76;21027;-46
2021/10/12 01:48:09;;;;;;;19.25;14.65;;;11.00;90.20;;;;;;1890143;76;21082;-47
2021/10/12 01:50:39;;;;;;;23.98;15.78;;;11.00;90.20;;;;;;1890142;76;20999;-46
2021/10/12 01:53:08;;;;;;;22.25;16.67;;;11.00;90.20;;;;;;1890172;76;21316;-49
2021/10/12 01:55:38;;;;;;;24.27;15.88;;;11.00;90.20;;;;;;1890111;76;21136;-46
2021/10/12 01:58:07;;;;;;;17.87;14.40;;;11.00;90.20;;;;;;1890042;76;21073;-47
2021/10/12 02:00:37;;;;;;;20.50;15.75;;;10.90;90.00;;;;;;1890023;76;21081;-46
2021/10/12 02:03:06;;;;;;;20.55;14.58;;;10.90;90.30;;;;;;1890083;76;21034;-47
2021/10/12 02:05:36;;;;;;;19.98;15.60;;;10.80;90.00;;;;;;1889984;76;21102;-46
2021/10/12 02:08:05;;;;;;;21.68;15.48;;;10.80;90.20;;;;;;1890031;76;21007;-47
2021/10/12 02:10:35;;;;;;;24.00;17.15;;;10.80;90.30;;;;;;1890084;76;21125;-47
2021/10/12 02:13:04;;;;;;;20.80;15.72;;;10.80;90.40;;;;;;1889975;76;21007;-46
2021/10/12 02:15:34;;;;;;;21.27;14.45;;;10.80;90.30;;;;;;1889990;76;21038;-49
2021/10/12 02:18:03;;;;;;;21.50;15.25;;;10.80;90.30;;;;;;1889958;76;21035;-46
2021/10/12 02:20:33;;;;;;;19.00;13.80;;;10.80;90.30;;;;;;1889969;76;21096;-46
2021/10/12 02:23:02;;;;;;;24.65;14.38;;;10.80;90.40;;;;;;1890017;76;21092;-46
2021/10/12 02:25:31;;;;;;;25.50;13.72;;;10.80;90.30;;;;;;1889998;76;21145;-46
2021/10/12 02:28:01;;;;;;;20.45;14.68;;;10.80;90.30;;;;;;1889900;76;21093;-45
2021/10/12 02:30:30;;;;;;;16.60;13.50;;;10.80;90.30;;;;;;1890057;76;21054;-47
2021/10/12 02:33:00;;;;;;;23.90;14.20;;;10.90;90.30;;;;;;1889923;76;21010;-48
2021/10/12 02:35:29;;;;;;;19.90;14.05;;;10.90;90.40;;;;;;1889937;76;21038;-46
2021/10/12 02:37:58;;;;;;;20.00;14.23;;;10.90;90.40;;;;;;1885597;76;21075;-47
2021/10/12 02:40:28;;;;;;;21.90;14.33;;;10.90;90.30;;;;;;1871535;77;21047;-46
2021/10/12 02:42:57;;;;;;;19.15;14.05;;;10.90;90.30;;;;;;1871317;75;21097;-47
2021/10/12 02:45:26;;;;;;;27.85;14.63;;;11.00;90.30;;;;;;1871568;77;21102;-47
2021/10/12 02:47:56;;;;;;;20.82;14.15;;;10.90;90.30;;;;;;1871343;75;21039;-46
2021/10/12 02:50:25;;;;;;;18.55;14.15;;;10.90;90.30;;;;;;1871429;77;21039;-46
2021/10/12 02:52:55;;;;;;;24.27;15.38;;;11.00;90.30;;;;;;1871350;77;21036;-48
2021/10/12 02:55:24;;;;;;;22.70;14.33;;;11.00;90.50;;;;;;1871357;77;21097;-47
2021/10/12 02:57:54;;;;;;;19.70;13.53;;;10.90;90.30;;;;;;1871321;77;21228;-46
2021/10/12 03:00:23;;;;;;;18.15;14.38;;;11.00;90.30;;;;;;1871337;77;21007;-46
2021/10/12 03:02:52;;;;;;;17.00;12.98;;;11.00;90.30;;;;;;1871432;76;21110;-46
2021/10/12 03:05:22;;;;;;;19.77;14.18;;;11.00;90.30;;;;;;1871388;77;21043;-47
2021/10/12 03:07:51;;;;;;;21.15;13.13;;;11.00;90.30;;;;;;1871306;77;21035;-47
2021/10/12 03:10:20;;;;;;;21.33;14.45;;;11.00;90.30;;;;;;1871325;75;21031;-47
2021/10/12 03:12:50;;;;;;;22.58;15.50;;;11.00;90.30;;;;;;1871434;77;21508;-48
2021/10/12 03:15:19;;;;;;;26.00;15.25;;;11.00;90.20;;;;;;1871332;77;21140;-47
2021/10/12 03:17:49;;;;;;;19.65;14.30;;;11.00;90.10;;;;;;1871334;76;21099;-46
2021/10/12 03:20:20;;;;;;;20.62;14.68;;;10.90;90.20;;;;;;1871495;77;21133;-47
2021/10/12 03:22:49;;;;;;;21.05;14.90;;;10.80;90.20;;;;;;1871273;77;21551;-46
2021/10/12 03:25:18;;;;;;;21.93;14.15;;;10.80;90.30;;;;;;1871348;77;21074;-47
2021/10/12 03:27:48;;;;;;;24.80;14.78;;;10.80;90.40;;;;;;1871419;77;21063;-48
2021/10/12 03:30:17;;;;;;;20.75;14.20;;;10.80;90.50;;;;;;1871539;77;21035;-47
2021/10/12 03:32:46;;;;;;;22.85;14.20;;;10.80;90.50;;;;;;1871311;77;21031;-46
2021/10/12 03:35:19;;;;;;;27.75;15.05;;;10.80;90.70;;;;;;1871447;77;21039;-47
2021/10/12 03:37:47;;;;;;;19.15;13.50;;;10.90;90.50;;;;;;1871319;76;21066;-47
2021/10/12 03:40:16;;;;;;;29.15;17.23;;;10.90;90.50;;;;;;1888959;76;21054;-46
2021/10/12 03:42:46;;;;;;;37.23;23.35;;;10.90;90.50;;;;;;1890007;76;21096;-46
2021/10/12 03:45:15;;;;;;;28.87;15.60;;;10.90;90.50;;;;;;1890141;76;21038;-47
2021/10/12 03:47:45;;;;;;;21.50;14.58;;;11.00;90.50;;;;;;1890008;76;21089;-46
2021/10/12 03:50:14;;;;;;;23.27;14.38;;;10.90;90.50;;;;;;1890264;76;21031;-47
2021/10/12 03:52:43;;;;;;;19.10;13.88;;;11.00;90.50;;;;;;1890151;76;21093;-48
2021/10/12 03:55:13;;;;;;;23.92;14.25;;;10.90;90.50;;;;;;1890051;76;21038;-47
2021/10/12 03:57:42;;;;;;;26.75;13.83;;;10.90;90.40;;;;;;1890109;76;21549;-47
2021/10/12 04:00:12;;;;;;;19.45;13.78;;;10.80;90.40;;;;;;1889991;76;21093;-46
2021/10/12 04:02:42;;;;;;;20.08;14.05;;;10.80;90.60;;;;;;1890008;76;21026;-46
2021/10/12 04:05:11;;;;;;;21.97;13.98;;;10.80;90.60;;;;;;1890052;76;20998;-47
2021/10/12 04:07:41;;;;;;;18.10;13.03;;;10.90;90.70;;;;;;1890018;76;21050;-47
2021/10/12 04:10:11;;;;;;;21.33;12.40;;;10.80;90.70;;;;;;1889978;76;21099;-50
2021/10/12 04:12:40;;;;;;;25.60;14.38;;;10.90;90.70;;;;;;1890019;76;21104;-47
2021/10/12 04:15:10;;;;;;;24.82;13.83;;;10.90;90.80;;;;;;1890033;76;21038;-46
2021/10/12 04:17:39;;;;;;;18.35;13.08;;;10.90;90.70;;;;;;1890020;76;21035;-47
2021/10/12 04:20:10;;;;;;;19.05;14.07;;;10.90;90.70;;;;;;1890013;76;21234;-48
2021/10/12 04:22:39;;;;;;;23.65;14.38;;;10.90;90.70;;;;;;1889967;76;21088;-48
2021/10/12 04:25:09;;;;;;;23.05;14.00;;;11.00;90.80;;;;;;1890054;76;21089;-47
2021/10/12 04:27:39;;;;;;;31.27;17.82;;;11.00;90.80;;;;;;1890016;76;21034;-46
2021/10/12 04:30:09;;;;;;;29.35;16.65;;;11.10;90.80;;;;;;1889974;76;21054;-46
2021/10/12 04:32:38;;;;;;;24.92;15.45;;;11.10;90.80;;;;;;1890183;76;21086;-46
2021/10/12 04:35:08;;;;;;;22.15;15.55;;;11.10;90.80;;;;;;1890030;76;21117;-49
2021/10/12 04:37:38;;;;;;;20.85;13.43;;;11.20;90.80;;;;;;1890049;76;21035;-49
2021/10/12 04:40:08;;;;;;;26.85;15.60;;;11.20;91.00;;;;;;1889887;75;21066;-50
2021/10/12 04:42:37;;;;;;;21.65;14.53;;;11.20;90.80;;;;;;1890103;76;21104;-50
2021/10/12 04:45:07;;;;;;;26.15;15.35;;;11.20;90.80;;;;;;1890089;76;21031;-50
2021/10/12 04:47:37;;;;;;;30.52;15.80;;;11.20;90.90;;;;;;1890075;76;21031;-50
2021/10/12 04:50:07;;;;;;;25.15;15.10;;;11.30;90.90;;;;;;1890047;76;21038;-46
2021/10/12 04:52:36;;;;;;;23.27;14.50;;;11.30;91.00;;;;;;1890136;76;21031;-50
2021/10/12 04:55:05;;;;;;;31.10;14.40;;;11.40;91.00;;;;;;1890118;76;21515;-47
2021/10/12 04:57:35;;;;;;;34.35;15.23;;;11.40;91.00;;;;;;1890173;76;21043;-49
2021/10/12 05:00:08;;;;;;;25.08;14.87;;;11.40;91.00;;;;;;1889614;75;21038;-50
2021/10/12 05:02:38;;;;;;;24.30;14.87;;;11.50;91.00;;;;;;1889895;76;20995;-47
2021/10/12 05:05:09;;;;;;;19.62;13.83;;;11.50;91.00;;;;;;1890002;76;21030;-49
2021/10/12 05:07:39;;;;;;;16.90;13.15;;;11.60;91.00;;;;;;1889867;76;21063;-48
2021/10/12 05:10:09;;;;;;;23.00;13.72;;;11.60;91.00;;;;;;1889949;76;21027;-46
2021/10/12 05:12:38;;;;;;;25.27;14.33;;;11.60;91.00;;;;;;1889910;76;21038;-49
2021/10/12 05:15:09;;;;;;;25.95;14.38;;;11.70;91.00;;;;;;1889860;76;21034;-49
2021/10/12 05:17:46;;;;;;;21.50;14.35;;;11.70;91.00;;;;;;1889838;76;21096;-48
2021/10/12 05:20:10;;;;;;;33.92;17.27;;;11.80;91.10;;;;;;1889041;75;21086;-46
2021/10/12 05:22:39;;;;;;;32.83;16.82;;;11.80;91.00;;;;;;1889831;76;21062;-47
2021/10/12 05:25:08;;;;;;;26.25;18.67;;;11.90;91.00;;;;;;1889976;76;21038;-47
2021/10/12 05:27:39;;;;;;;28.77;16.27;;;11.90;91.20;;;;;;1889869;76;21049;-49
2021/10/12 05:30:10;;;;;;;25.15;15.98;;;12.00;91.00;;;;;;1889809;76;21031;-50
2021/10/12 05:32:41;;;;;;;24.82;16.07;;;12.00;91.00;;;;;;1889990;76;21515;-49
2021/10/12 05:35:11;;;;;;;30.32;17.73;;;12.10;91.10;;;;;;1889749;76;21109;-48
2021/10/12 05:37:40;;;;;;;29.23;18.70;;;12.10;91.00;;;;;;1889862;76;21019;-49
2021/10/12 05:40:10;;;;;;;33.40;21.02;;;12.20;91.00;;;;;;1883306;76;21121;-49
2021/10/12 05:42:40;;;;;;;45.95;30.23;;;12.20;91.10;;;;;;1871356;77;21041;-49
2021/10/12 05:45:09;;;;;;;64.85;41.40;;;12.30;91.00;;;;;;1871017;76;21063;-50
2021/10/12 05:47:38;;;;;;;53.92;32.10;;;12.30;91.00;;;;;;1871261;77;21023;-48
2021/10/12 05:50:08;;;;;;;37.63;24.02;;;12.40;91.20;;;;;;1871174;77;21043;-47
2021/10/12 05:52:39;;;;;;;45.40;29.15;;;12.50;91.20;;;;;;1871207;76;21093;-47
2021/10/12 05:55:16;;;;;;;39.80;21.12;;;12.50;91.10;;;;;;1871175;77;21478;-50
2021/10/12 05:58:06;;;;;;;37.78;22.85;;;12.60;91.10;;;;;;1871129;76;21113;-46
2021/10/12 06:00:26;;;;;;;32.13;24.40;;;12.70;91.10;;;;;;1870305;76;21121;-48
2021/10/12 06:02:55;;;;;;;44.55;30.88;;;12.80;91.10;;;;;;1871095;77;21027;-49
2021/10/12 06:05:24;;;;;;;48.20;33.18;;;12.80;91.20;;;;;;1871115;77;21008;-48
2021/10/12 06:07:54;;;;;;;32.28;23.52;;;12.90;91.20;;;;;;1871306;76;21434;-46
2021/10/12 06:10:23;;;;;;;19.75;14.43;;;13.00;91.30;;;;;;1871216;77;21137;-50
2021/10/12 06:12:53;;;;;;;19.57;13.32;;;13.10;91.30;;;;;;1871428;76;21049;-50
2021/10/12 06:15:23;;;;;;;20.45;15.68;;;13.10;91.50;;;;;;1871455;77;21027;-47
2021/10/12 06:17:52;;;;;;;23.80;17.02;;;13.20;91.30;;;;;;1871306;77;21035;-49
2021/10/12 06:20:21;;;;;;;29.42;17.40;;;13.30;91.30;;;;;;1871406;77;21093;-50
2021/10/12 06:22:51;;;;;;;25.97;15.35;;;13.40;91.40;;;;;;1871312;77;21093;-50
2021/10/12 06:25:20;;;;;;;24.32;15.40;;;13.50;91.30;;;;;;1859132;77;21008;-51
2021/10/12 06:27:49;;;;;;;30.45;17.65;;;13.50;91.30;;;;;;1871383;77;21070;-50
2021/10/12 06:30:19;;;;;;;26.40;17.67;;;13.60;91.20;;;;;;1871307;77;21039;-48
2021/10/12 06:32:48;;;;;;;23.10;16.15;;;13.60;91.20;;;;;;1871319;77;21055;-48
2021/10/12 06:35:18;;;;;;;25.05;16.70;;;13.70;91.10;;;;;;1871359;75;21000;-49
2021/10/12 06:37:47;;;;;;;28.27;17.98;;;13.80;91.20;;;;;;1871303;77;21085;-49
2021/10/12 06:40:17;;;;;;;31.48;18.55;;;13.80;91.10;;;;;;1873426;76;21035;-49
2021/10/12 06:42:47;;;;;;;29.15;18.85;;;13.90;91.30;;;;;;1889988;76;21085;-49
2021/10/12 06:45:16;;;;;;;33.18;18.40;;;14.00;91.10;;;;;;1889893;76;21030;-49
2021/10/12 06:47:47;;;;;;;36.63;20.68;;;14.00;91.00;;;;;;1890075;76;21109;-50
2021/10/12 06:50:17;;;;;;;33.85;22.02;;;14.10;91.00;;;;;;1889955;76;21027;-50
2021/10/12 06:52:47;;;;;;;36.60;23.67;;;14.20;91.00;;;;;;1890010;76;21035;-48
2021/10/12 06:55:17;;;;;;;33.30;22.73;;;14.20;91.00;;;;;;1889880;76;21034;-50
2021/10/12 06:57:46;;;;;;;32.28;21.35;;;14.30;91.00;;;;;;1890139;76;21026;-47
2021/10/12 07:00:17;;;;;;;37.80;25.62;;;14.30;90.90;;;;;;1890157;76;21031;-50
2021/10/12 07:02:47;;;;;;;33.33;24.70;;;14.40;90.90;;;;;;1890210;76;21034;-47
2021/10/12 07:05:18;;;;;;;42.23;27.40;;;14.50;90.90;;;;;;1890061;76;21038;-47
2021/10/12 07:07:47;;;;;;;46.40;29.10;;;14.50;90.90;;;;;;1890046;76;21070;-49
2021/10/12 07:10:17;;;;;;;43.75;28.23;;;14.70;90.90;;;;;;1889927;76;21084;-48
2021/10/12 07:12:46;;;;;;;35.10;26.48;;;14.70;90.90;;;;;;1889931;76;21007;-50
2021/10/12 07:15:16;;;;;;;29.10;19.80;;;14.80;90.80;;;;;;1890037;76;21085;-48
2021/10/12 07:17:45;;;;;;;33.95;19.75;;;14.90;90.80;;;;;;1889923;76;21027;-51
2021/10/12 07:20:15;;;;;;;36.60;23.65;;;15.00;90.70;;;;;;1889886;76;21039;-50
2021/10/12 07:22:44;;;;;;;39.42;22.48;;;15.00;90.60;;;;;;1889985;76;21038;-50
2021/10/12 07:25:13;;;;;;;27.00;20.20;;;15.10;90.60;;;;;;1889920;76;21042;-49
2021/10/12 07:27:43;;;;;;;28.70;18.02;;;15.20;90.50;;;;;;1889825;76;21038;-50
2021/10/12 07:30:13;;;;;;;24.23;16.27;;;15.30;90.40;;;;;;1889928;76;21065;-52
2021/10/12 07:32:43;;;;;;;24.60;14.75;;;15.30;90.40;;;;;;1889879;76;21030;-49
2021/10/12 07:35:12;;;;;;;22.60;13.80;;;15.40;90.30;;;;;;1889135;76;21136;-49
2021/10/12 07:37:42;;;;;;;19.55;12.98;;;15.40;90.20;;;;;;1889168;76;21072;-50
2021/10/12 07:40:12;;;;;;;26.87;14.55;;;15.50;90.10;;;;;;1889556;76;21074;-51
2021/10/12 07:42:42;;;;;;;14.15;12.00;;;15.60;90.20;;;;;;1872949;76;21104;-45
2021/10/12 07:45:12;;;;;;;16.67;11.93;;;15.70;90.10;;;;;;1870548;77;21083;-44
2021/10/12 07:47:41;;;;;;;23.55;13.15;;;15.80;90.10;;;;;;1870697;77;21110;-47
2021/10/12 07:50:11;;;;;;;21.52;12.25;;;15.90;89.90;;;;;;1870482;77;21098;-46
2021/10/12 07:52:42;;;;;;;19.95;12.73;;;16.00;89.90;;;;;;1870757;76;21031;-48
2021/10/12 07:57:42;;;;;;;22.95;12.75;;;16.10;89.70;;;;;;1870523;77;21091;-47
2021/10/12 08:00:12;;;;;;;18.00;11.90;;;16.10;89.60;;;;;;1870635;77;21093;-47
2021/10/12 08:02:41;;;;;;;15.38;11.78;;;16.20;89.60;;;;;;1870690;77;21139;-46
2021/10/12 08:05:11;;;;;;;14.50;10.30;;;16.30;89.40;;;;;;1870551;75;21058;-51
2021/10/12 08:07:40;;;;;;;17.12;10.05;;;16.40;89.20;;;;;;1870588;76;21003;-48
2021/10/12 08:10:10;;;;;;;21.27;11.85;;;16.40;88.70;;;;;;1870694;76;21031;-50
2021/10/12 08:12:39;;;;;;;28.23;12.93;;;16.50;88.60;;;;;;1870578;77;21113;-49
2021/10/12 08:15:09;;;;;;;15.93;10.95;;;16.50;88.50;;;;;;1870487;77;21083;-47
2021/10/12 08:17:39;;;;;;;18.27;11.93;;;16.60;88.30;;;;;;1870661;75;21152;-46
2021/10/12 08:20:09;;;;;;;17.27;11.03;;;16.70;88.20;;;;;;1870604;77;21108;-49
2021/10/12 08:22:39;;;;;;;13.35;9.20;;;16.80;87.90;;;;;;1870705;75;21051;-45
2021/10/12 08:25:09;;;;;;;15.88;11.55;;;16.90;87.50;;;;;;1870800;77;21063;-45
2021/10/12 08:27:39;;;;;;;16.50;11.75;;;16.90;87.50;;;;;;1870796;77;21040;-45
2021/10/12 08:30:13;;;;;;;18.00;11.33;;;17.00;87.00;;;;;;1870706;77;21093;-45
2021/10/12 08:32:43;;;;;;;22.85;13.98;;;17.00;86.90;;;;;;1872387;75;21033;-45
2021/10/12 08:35:12;;;;;;;15.35;11.75;;;17.10;86.70;;;;;;1872059;75;21055;-47
2021/10/12 08:37:41;;;;;;;19.92;13.55;;;17.20;86.70;;;;;;1872213;75;21035;-46
